^^
Your Local Weather - Clay, NY Station Historical Data
Daily Summary for October 22, 2017 Units:  English    Metric   Both
« Previous Day
Next Day »
Daily Weekly Monthly Yearly Custom
  High: Low: Average:
Temperature: 73.6 °F 43.2 °F 57.2 °F
Dew Point: 56.4 °F 41.3 °F 47.8 °F
Humidity: 94% 46% 74%
Wind Speed: 3.0mph 0.0mph 0.6mph
Wind Gust: 7.0mph - -
Wind- - East
Pressure: 30.30 in 30.18 in -
Precipitation: 0.00 in    
Historical Graphs
 
 
Tabular Data for October 22, 2017
Time Temperature Dew Point Pressure Wind Wind Speed Wind Gust Humidity Rainfall Rate (Hourly) solar
00:02 47.3 °F 44.5 °F 30.25 in Calm     90% 0.00 in 0 W/m2
00:03 47.4 °F 44.6 °F 30.24 in Calm     90% 0.00 in 0 W/m2
00:10 48.3 °F 45.5 °F 30.24 in Calm     90% 0.00 in 0 W/m2
00:15 49.0 °F 46.2 °F 30.24 in Calm   1.0 mph 90% 0.00 in 0 W/m2
00:22 49.3 °F 46.5 °F 30.24 in Calm   1.0 mph 90% 0.00 in 0 W/m2
00:28 49.3 °F 46.2 °F 30.24 in Calm   1.0 mph 89% 0.00 in 0 W/m2
00:34 49.2 °F 46.1 °F 30.24 in Calm   1.0 mph 89% 0.00 in 0 W/m2
00:40 49.3 °F 46.2 °F 30.24 in Calm     89% 0.00 in 0 W/m2
00:42 49.3 °F 46.2 °F 30.25 in Calm     89% 0.00 in 0 W/m2
00:48 49.2 °F 46.1 °F 30.25 in Calm     89% 0.00 in 0 W/m2
00:53 49.2 °F 46.1 °F 30.25 in Calm   1.0 mph 89% 0.00 in 0 W/m2
01:00 49.3 °F 46.2 °F 30.25 in Calm     89% 0.00 in 0 W/m2
01:06 49.2 °F 46.1 °F 30.25 in Calm   1.0 mph 89% 0.00 in 0 W/m2
01:12 49.0 °F 45.9 °F 30.25 in Calm     89% 0.00 in 0 W/m2
01:18 48.5 °F 45.4 °F 30.25 in Calm     89% 0.00 in 0 W/m2
01:24 47.9 °F 44.8 °F 30.25 in Calm     89% 0.00 in 0 W/m2
01:30 47.6 °F 44.5 °F 30.25 in Calm     89% 0.00 in 0 W/m2
01:36 47.4 °F 44.3 °F 30.25 in Calm     89% 0.00 in 0 W/m2
01:42 47.2 °F 44.1 °F 30.25 in Calm     89% 0.00 in 0 W/m2
01:48 46.9 °F 43.8 °F 30.25 in Calm     89% 0.00 in 0 W/m2
01:54 46.6 °F 43.8 °F 30.25 in Calm     90% 0.00 in 0 W/m2
02:00 46.3 °F 43.5 °F 30.25 in Calm     90% 0.00 in 0 W/m2
02:06 46.0 °F 43.2 °F 30.26 in Calm     90% 0.00 in 0 W/m2
02:12 45.8 °F 43.0 °F 30.26 in Calm     90% 0.00 in 0 W/m2
02:18 45.7 °F 42.9 °F 30.26 in Calm     90% 0.00 in 0 W/m2
02:24 45.6 °F 42.8 °F 30.26 in Calm     90% 0.00 in 0 W/m2
02:30 45.3 °F 42.8 °F 30.27 in Calm     91% 0.00 in 0 W/m2
02:36 45.1 °F 42.3 °F 30.27 in Calm     90% 0.00 in 0 W/m2
02:42 44.9 °F 42.4 °F 30.27 in Calm     91% 0.00 in 0 W/m2
02:48 44.7 °F 42.2 °F 30.27 in Calm     91% 0.00 in 0 W/m2
02:54 44.6 °F 42.1 °F 30.27 in Calm     91% 0.00 in 0 W/m2
03:00 44.7 °F 42.2 °F 30.27 in Calm     91% 0.00 in 0 W/m2
03:06 44.6 °F 42.1 °F 30.27 in Calm     91% 0.00 in 0 W/m2
03:12 44.5 °F 42.0 °F 30.26 in Calm     91% 0.00 in 0 W/m2
03:18 44.6 °F 42.4 °F 30.26 in Calm     92% 0.00 in 0 W/m2
03:24 44.7 °F 42.5 °F 30.26 in Calm     92% 0.00 in 0 W/m2
03:30 44.7 °F 42.5 °F 30.26 in Calm     92% 0.00 in 0 W/m2
03:36 44.8 °F 42.6 °F 30.26 in Calm     92% 0.00 in 0 W/m2
03:42 44.8 °F 42.6 °F 30.26 in Calm     92% 0.00 in 0 W/m2
03:48 45.1 °F 42.9 °F 30.26 in Calm     92% 0.00 in 0 W/m2
03:54 45.3 °F 43.1 °F 30.26 in Calm     92% 0.00 in 0 W/m2
04:00 45.3 °F 43.1 °F 30.26 in Calm     92% 0.00 in 0 W/m2
04:06 45.3 °F 43.1 °F 30.27 in Calm     92% 0.00 in 0 W/m2
04:12 45.2 °F 43.0 °F 30.27 in Calm     92% 0.00 in 0 W/m2
04:18 44.9 °F 42.7 °F 30.26 in Calm     92% 0.00 in 0 W/m2
04:24 44.8 °F 42.6 °F 30.27 in Calm     92% 0.00 in 0 W/m2
04:30 44.7 °F 42.5 °F 30.26 in Calm     92% 0.00 in 0 W/m2
04:36 44.5 °F 42.3 °F 30.27 in Calm     92% 0.00 in 0 W/m2
04:42 44.5 °F 42.6 °F 30.27 in Calm     93% 0.00 in 0 W/m2
04:48 44.5 °F 42.6 °F 30.27 in Calm     93% 0.00 in 0 W/m2
04:54 44.6 °F 42.7 °F 30.27 in Calm     93% 0.00 in 0 W/m2
05:00 44.5 °F 42.6 °F 30.27 in Calm     93% 0.00 in 0 W/m2
05:06 44.3 °F 42.4 °F 30.27 in Calm     93% 0.00 in 0 W/m2
05:12 44.2 °F 42.3 °F 30.27 in Calm     93% 0.00 in 0 W/m2
05:18 44.0 °F 42.1 °F 30.28 in Calm     93% 0.00 in 0 W/m2
05:24 43.8 °F 41.9 °F 30.28 in Calm     93% 0.00 in 0 W/m2
05:30 43.8 °F 41.9 °F 30.28 in Calm     93% 0.00 in 0 W/m2
05:36 43.9 °F 42.0 °F 30.28 in Calm     93% 0.00 in 0 W/m2
05:42 44.0 °F 42.1 °F 30.28 in Calm     93% 0.00 in 0 W/m2
05:48 44.1 °F 42.2 °F 30.28 in Calm     93% 0.00 in 0 W/m2
05:54 44.3 °F 42.4 °F 30.28 in Calm   1.0 mph 93% 0.00 in 0 W/m2
06:00 44.6 °F 42.7 °F 30.28 in Calm   1.0 mph 93% 0.00 in 0 W/m2
06:06 44.6 °F 42.7 °F 30.28 in Calm   1.0 mph 93% 0.00 in 0 W/m2
06:12 44.5 °F 42.6 °F 30.28 in Calm     93% 0.00 in 0 W/m2
06:18 44.3 °F 42.4 °F 30.28 in Calm     93% 0.00 in 0 W/m2
06:24 44.3 °F 42.4 °F 30.28 in Calm   1.0 mph 93% 0.00 in 0 W/m2
06:30 44.2 °F 42.3 °F 30.28 in Calm     93% 0.00 in 0 W/m2
06:36 44.4 °F 42.5 °F 30.28 in Calm     93% 0.00 in 0 W/m2
06:42 44.4 °F 42.5 °F 30.29 in Calm     93% 0.00 in 0 W/m2
06:48 44.2 °F 42.3 °F 30.28 in Calm     93% 0.00 in 0 W/m2
06:54 44.1 °F 42.2 °F 30.28 in Calm     93% 0.00 in 0 W/m2
07:00 44.0 °F 42.1 °F 30.29 in Calm     93% 0.00 in 0 W/m2
07:06 43.9 °F 42.0 °F 30.28 in Calm     93% 0.00 in 0 W/m2
07:12 43.7 °F 41.8 °F 30.28 in Calm     93% 0.00 in 0 W/m2
07:18 43.6 °F 41.7 °F 30.28 in Calm     93% 0.00 in 0 W/m2
07:24 43.5 °F 41.6 °F 30.28 in Calm     93% 0.00 in 0 W/m2
07:30 43.6 °F 41.7 °F 30.28 in Calm     93% 0.00 in 0 W/m2
07:36 43.4 °F 41.5 °F 30.28 in Calm     93% 0.00 in 5 W/m2
07:42 43.3 °F 41.4 °F 30.28 in Calm     93% 0.00 in 9 W/m2
07:48 43.2 °F 41.3 °F 30.29 in Calm     93% 0.00 in 11 W/m2
07:54 43.2 °F 41.3 °F 30.29 in Calm     93% 0.00 in 14 W/m2
08:00 43.4 °F 41.5 °F 30.29 in Calm     93% 0.00 in 16 W/m2
08:06 43.7 °F 41.8 °F 30.29 in Calm     93% 0.00 in 19 W/m2
08:12 44.0 °F 42.1 °F 30.29 in Calm     93% 0.00 in 32 W/m2
08:18 44.7 °F 42.8 °F 30.29 in Calm     93% 0.00 in 33 W/m2
08:24 45.2 °F 43.6 °F 30.29 in Calm   1.0 mph 94% 0.00 in 32 W/m2
08:30 45.8 °F 43.9 °F 30.30 in Calm     93% 0.00 in 39 W/m2
08:36 46.7 °F 45.1 °F 30.30 in Calm   2.0 mph 94% 0.00 in 163 W/m2
08:42 47.8 °F 46.2 °F 30.29 in NE 1.0 mph 3.0 mph 94% 0.00 in 165 W/m2
08:48 48.8 °F 46.9 °F 30.29 in NE 2.0 mph 3.0 mph 93% 0.00 in 141 W/m2
08:54 49.7 °F 47.8 °F 30.29 in NE 1.0 mph 2.0 mph 93% 0.00 in 155 W/m2
09:00 50.2 °F 48.0 °F 30.29 in NE 1.0 mph 1.0 mph 92% 0.00 in 121 W/m2
09:06 51.1 °F 48.3 °F 30.29 in NE 1.0 mph 4.0 mph 90% 0.00 in 190 W/m2
09:18 53.5 °F 49.1 °F 30.28 in NE 1.0 mph 3.0 mph 85% 0.00 in 207 W/m2
09:24 55.1 °F 49.0 °F 30.28 in ENE 2.0 mph 5.0 mph 80% 0.00 in 260 W/m2
09:30 56.5 °F 50.1 °F 30.28 in NE 2.0 mph 2.0 mph 79% 0.00 in 297 W/m2
09:36 57.9 °F 49.7 °F 30.28 in ENE 1.0 mph 3.0 mph 74% 0.00 in 304 W/m2
09:42 58.9 °F 49.5 °F 30.28 in ENE 1.0 mph 1.0 mph 71% 0.00 in 334 W/m2
09:48 59.7 °F 49.1 °F 30.28 in ENE 1.0 mph 2.0 mph 68% 0.00 in 352 W/m2
09:54 60.8 °F 49.8 °F 30.28 in ENE 1.0 mph 1.0 mph 67% 0.00 in 371 W/m2
10:00 61.0 °F 50.0 °F 30.28 in ENE 1.0 mph 1.0 mph 67% 0.00 in 392 W/m2
10:06 62.3 °F 50.8 °F 30.27 in ENE 1.0 mph 3.0 mph 66% 0.00 in 408 W/m2
10:12 63.0 °F 49.3 °F 30.27 in East 1.0 mph 2.0 mph 61% 0.00 in 422 W/m2
10:18 63.2 °F 49.5 °F 30.27 in ESE 2.0 mph 2.0 mph 61% 0.00 in 445 W/m2
10:24 63.5 °F 48.5 °F 30.27 in ESE 2.0 mph 2.0 mph 58% 0.00 in 424 W/m2
10:30 63.9 °F 49.7 °F 30.27 in East 2.0 mph 3.0 mph 60% 0.00 in 480 W/m2
10:36 65.1 °F 50.9 °F 30.27 in East 1.0 mph 3.0 mph 60% 0.00 in 494 W/m2
10:42 65.2 °F 48.1 °F 30.27 in ENE 1.0 mph 3.0 mph 54% 0.00 in 517 W/m2
10:48 65.8 °F 49.7 °F 30.27 in ENE 2.0 mph 4.0 mph 56% 0.00 in 550 W/m2
10:54 65.9 °F 50.7 °F 30.26 in ENE 1.0 mph 2.0 mph 58% 0.00 in 550 W/m2
11:00 66.9 °F 49.2 °F 30.26 in SE 1.0 mph 2.0 mph 53% 0.00 in 573 W/m2
11:06 67.1 °F 48.9 °F 30.26 in SE 2.0 mph 2.0 mph 52% 0.00 in 527 W/m2
11:12 68.2 °F 49.4 °F 30.26 in SE 1.0 mph 2.0 mph 51% 0.00 in 573 W/m2
11:18 68.8 °F 50.5 °F 30.26 in SE 1.0 mph 2.0 mph 52% 0.00 in 329 W/m2
11:24 68.8 °F 47.7 °F 30.26 in ENE 1.0 mph 4.0 mph 47% 0.00 in 547 W/m2
11:30 69.2 °F 49.8 °F 30.26 in South 1.0 mph 1.0 mph 50% 0.00 in 540 W/m2
11:36 69.5 °F 49.5 °F 30.25 in SE 1.0 mph 2.0 mph 49% 0.00 in 559 W/m2
11:42 69.4 °F 48.9 °F 30.25 in SE 1.0 mph 3.0 mph 48% 0.00 in 564 W/m2
11:48 70.1 °F 53.2 °F 30.25 in SE 1.0 mph 3.0 mph 55% 0.00 in 577 W/m2
11:54 71.0 °F 51.4 °F 30.25 in Calm   2.0 mph 50% 0.00 in 564 W/m2
12:02 70.9 °F 50.2 °F 30.25 in SE 1.0 mph 3.0 mph 48% 0.00 in 571 W/m2
12:08 70.8 °F 50.1 °F 30.25 in SE 2.0 mph 3.0 mph 48% 0.00 in 603 W/m2
12:14 71.2 °F 49.9 °F 30.25 in SE 1.0 mph 2.0 mph 47% 0.00 in 513 W/m2
12:20 70.9 °F 51.3 °F 30.24 in SE 1.0 mph 1.0 mph 50% 0.00 in 515 W/m2
12:26 71.4 °F 51.8 °F 30.24 in SE 1.0 mph 1.0 mph 50% 0.00 in 540 W/m2
12:32 70.8 °F 50.7 °F 30.24 in SE 1.0 mph 3.0 mph 49% 0.00 in 443 W/m2
12:38 71.1 °F 52.6 °F 30.24 in SE 1.0 mph 3.0 mph 52% 0.00 in 383 W/m2
12:44 71.5 °F 52.9 °F 30.24 in SE 1.0 mph 1.0 mph 52% 0.00 in 396 W/m2
12:50 71.7 °F 52.1 °F 30.24 in NE 2.0 mph 3.0 mph 50% 0.00 in 515 W/m2
12:56 70.8 °F 52.3 °F 30.24 in NE 3.0 mph 3.0 mph 52% 0.00 in 471 W/m2
13:03 70.1 °F 52.2 °F 30.24 in NNE 3.0 mph 6.0 mph 53% 0.00 in 457 W/m2
13:08 70.4 °F 52.4 °F 30.24 in North 3.0 mph 6.0 mph 53% 0.00 in 578 W/m2
13:14 70.4 °F 52.4 °F 30.24 in ENE 2.0 mph 3.0 mph 53% 0.00 in 482 W/m2
13:20 70.8 °F 52.8 °F 30.24 in ENE 1.0 mph 1.0 mph 53% 0.00 in 489 W/m2
13:26 71.0 °F 52.0 °F 30.24 in ENE 1.0 mph 4.0 mph 51% 0.00 in 524 W/m2
13:32 72.4 °F 53.2 °F 30.24 in ENE 2.0 mph 4.0 mph 51% 0.00 in 636 W/m2
13:38 71.7 °F 52.6 °F 30.24 in NE 2.0 mph 4.0 mph 51% 0.00 in 557 W/m2
13:44 71.8 °F 51.6 °F 30.24 in ENE 3.0 mph 4.0 mph 49% 0.00 in 622 W/m2
13:50 72.5 °F 52.2 °F 30.23 in ENE 3.0 mph 3.0 mph 49% 0.00 in 466 W/m2
13:56 73.3 °F 53.5 °F 30.23 in NE 2.0 mph 3.0 mph 50% 0.00 in 476 W/m2
14:02 72.9 °F 50.9 °F 30.22 in ENE 2.0 mph 2.0 mph 46% 0.00 in 403 W/m2
14:08 73.0 °F 52.1 °F 30.22 in NNE 2.0 mph 2.0 mph 48% 0.00 in 455 W/m2
14:14 73.1 °F 51.7 °F 30.22 in ENE 2.0 mph 3.0 mph 47% 0.00 in 322 W/m2
14:20 73.2 °F 51.8 °F 30.22 in NE 2.0 mph 4.0 mph 47% 0.00 in 431 W/m2
14:26 73.0 °F 51.6 °F 30.22 in NE 2.0 mph 4.0 mph 47% 0.00 in 357 W/m2
14:32 72.7 °F 51.9 °F 30.22 in NE 2.0 mph 2.0 mph 48% 0.00 in 301 W/m2
14:38 72.9 °F 50.9 °F 30.21 in NNE 2.0 mph 2.0 mph 46% 0.00 in 373 W/m2
14:44 73.0 °F 51.0 °F 30.21 in NNE 2.0 mph 4.0 mph 46% 0.00 in 329 W/m2
14:50 73.0 °F 51.6 °F 30.20 in NNE 2.0 mph 2.0 mph 47% 0.00 in 236 W/m2
14:56 72.7 °F 51.9 °F 30.20 in NNE 2.0 mph 2.0 mph 48% 0.00 in 211 W/m2
15:02 72.6 °F 51.8 °F 30.20 in NNE 1.0 mph 3.0 mph 48% 0.00 in 174 W/m2
15:08 72.2 °F 52.0 °F 30.20 in NNE 1.0 mph 3.0 mph 49% 0.00 in 225 W/m2
15:14 72.3 °F 52.1 °F 30.20 in NNE 1.0 mph 2.0 mph 49% 0.00 in 185 W/m2
15:20 72.1 °F 53.0 °F 30.20 in NNE 1.0 mph 1.0 mph 51% 0.00 in 151 W/m2
15:26 72.3 °F 54.7 °F 30.20 in Calm   1.0 mph 54% 0.00 in 186 W/m2
15:32 72.8 °F 53.1 °F 30.20 in Calm     50% 0.00 in 276 W/m2
15:38 73.3 °F 54.1 °F 30.20 in NNE 1.0 mph 1.0 mph 51% 0.00 in 195 W/m2
15:44 73.5 °F 53.7 °F 30.20 in Calm   1.0 mph 50% 0.00 in 167 W/m2
15:50 73.6 °F 56.4 °F 30.20 in Calm     55% 0.00 in 146 W/m2
15:56 73.5 °F 54.8 °F 30.20 in Calm   3.0 mph 52% 0.00 in 134 W/m2
16:02 73.6 °F 54.4 °F 30.20 in South 2.0 mph 3.0 mph 51% 0.00 in 128 W/m2
16:08 73.5 °F 53.2 °F 30.20 in SSE 3.0 mph 4.0 mph 49% 0.00 in 118 W/m2
16:14 73.2 °F 52.9 °F 30.20 in SE 3.0 mph 3.0 mph 49% 0.00 in 107 W/m2
16:20 72.9 °F 52.1 °F 30.19 in South 3.0 mph 4.0 mph 48% 0.00 in 104 W/m2
16:26 72.8 °F 52.0 °F 30.19 in South 3.0 mph 7.0 mph 48% 0.00 in 100 W/m2
16:32 72.6 °F 51.2 °F 30.19 in ESE 3.0 mph 5.0 mph 47% 0.00 in 97 W/m2
16:44 72.3 °F 52.1 °F 30.19 in SSE 2.0 mph 3.0 mph 49% 0.00 in 90 W/m2
16:50 72.2 °F 52.0 °F 30.19 in SSE 2.0 mph 2.0 mph 49% 0.00 in 86 W/m2
16:56 72.1 °F 52.4 °F 30.19 in SSE 1.0 mph 2.0 mph 50% 0.00 in 81 W/m2
17:02 71.9 °F 51.7 °F 30.19 in South 2.0 mph 3.0 mph 49% 0.00 in 72 W/m2
17:08 71.8 °F 51.0 °F 30.19 in South 3.0 mph 3.0 mph 48% 0.00 in 63 W/m2
17:14 71.9 °F 50.0 °F 30.19 in SSE 3.0 mph 5.0 mph 46% 0.00 in 58 W/m2
17:20 71.7 °F 51.0 °F 30.19 in SSE 3.0 mph 3.0 mph 48% 0.00 in 47 W/m2
17:26 71.4 °F 51.8 °F 30.19 in SSE 1.0 mph 3.0 mph 50% 0.00 in 40 W/m2
17:32 70.7 °F 52.2 °F 30.19 in Calm     52% 0.00 in 33 W/m2
17:38 70.0 °F 52.6 °F 30.19 in Calm     54% 0.00 in 33 W/m2
17:44 69.3 °F 52.9 °F 30.19 in Calm     56% 0.00 in 39 W/m2
17:50 68.3 °F 52.9 °F 30.19 in Calm     58% 0.00 in 33 W/m2
17:56 67.7 °F 53.8 °F 30.19 in Calm     61% 0.00 in 18 W/m2
18:02 66.6 °F 53.6 °F 30.18 in Calm     63% 0.00 in 9 W/m2
18:08 65.9 °F 53.4 °F 30.19 in Calm     64% 0.00 in 0 W/m2
18:14 65.2 °F 53.6 °F 30.19 in Calm     66% 0.00 in 0 W/m2
18:20 64.5 °F 53.3 °F 30.19 in Calm     67% 0.00 in 0 W/m2
18:26 63.7 °F 52.9 °F 30.19 in Calm     68% 0.00 in 0 W/m2
18:32 62.8 °F 52.9 °F 30.19 in Calm     70% 0.00 in 0 W/m2
18:38 62.2 °F 53.1 °F 30.18 in Calm     72% 0.00 in 0 W/m2
18:44 61.7 °F 53.0 °F 30.19 in Calm     73% 0.00 in 0 W/m2
18:50 61.3 °F 52.6 °F 30.19 in Calm     73% 0.00 in 0 W/m2
18:56 60.9 °F 52.2 °F 30.19 in Calm   1.0 mph 73% 0.00 in 0 W/m2
19:02 60.7 °F 51.6 °F 30.19 in Calm     72% 0.00 in 0 W/m2
19:08 60.4 °F 51.3 °F 30.19 in Calm     72% 0.00 in 0 W/m2
19:14 60.0 °F 51.3 °F 30.19 in Calm     73% 0.00 in 0 W/m2
19:20 59.5 °F 51.2 °F 30.19 in Calm     74% 0.00 in 0 W/m2
19:26 59.1 °F 51.2 °F 30.19 in Calm     75% 0.00 in 0 W/m2
19:32 58.8 °F 50.9 °F 30.19 in Calm     75% 0.00 in 0 W/m2
19:38 58.6 °F 50.7 °F 30.19 in Calm     75% 0.00 in 0 W/m2
19:44 58.4 °F 50.5 °F 30.19 in Calm     75% 0.00 in 0 W/m2
19:50 58.1 °F 49.9 °F 30.19 in Calm     74% 0.00 in 0 W/m2
19:56 58.0 °F 49.8 °F 30.19 in Calm     74% 0.00 in 0 W/m2
20:02 57.8 °F 49.6 °F 30.19 in Calm     74% 0.00 in 0 W/m2
20:08 57.4 °F 49.9 °F 30.19 in Calm     76% 0.00 in 0 W/m2
20:14 57.1 °F 50.0 °F 30.19 in Calm     77% 0.00 in 0 W/m2
20:20 56.8 °F 49.7 °F 30.19 in Calm     77% 0.00 in 0 W/m2
20:26 56.6 °F 49.8 °F 30.19 in Calm     78% 0.00 in 0 W/m2
20:32 56.5 °F 49.7 °F 30.20 in Calm     78% 0.00 in 0 W/m2
20:38 56.4 °F 49.3 °F 30.20 in Calm     77% 0.00 in 0 W/m2
20:44 56.1 °F 49.0 °F 30.20 in Calm     77% 0.00 in 0 W/m2
20:50 55.8 °F 49.0 °F 30.20 in Calm     78% 0.00 in 0 W/m2
20:56 55.5 °F 49.1 °F 30.20 in Calm     79% 0.00 in 0 W/m2
21:02 55.1 °F 48.4 °F 30.20 in Calm     78% 0.00 in 0 W/m2
21:08 54.8 °F 48.1 °F 30.20 in Calm     78% 0.00 in 0 W/m2
21:14 54.6 °F 48.2 °F 30.20 in Calm     79% 0.00 in 0 W/m2
21:20 54.3 °F 47.9 °F 30.20 in Calm     79% 0.00 in 0 W/m2
21:26 54.1 °F 47.7 °F 30.21 in Calm     79% 0.00 in 0 W/m2
21:32 53.9 °F 47.9 °F 30.21 in Calm     80% 0.00 in 0 W/m2
21:38 53.8 °F 48.1 °F 30.21 in Calm     81% 0.00 in 0 W/m2
21:44 53.6 °F 47.6 °F 30.21 in Calm     80% 0.00 in 0 W/m2
21:50 53.7 °F 48.0 °F 30.22 in Calm     81% 0.00 in 0 W/m2
21:56 53.7 °F 47.7 °F 30.22 in Calm   1.0 mph 80% 0.00 in 0 W/m2
22:04 54.0 °F 47.6 °F 30.22 in SSE 1.0 mph 1.0 mph 79% 0.00 in 0 W/m2
22:10 53.9 °F 47.9 °F 30.22 in Calm     80% 0.00 in 0 W/m2
22:16 53.7 °F 47.3 °F 30.22 in Calm   1.0 mph 79% 0.00 in 0 W/m2
22:22 53.7 °F 47.3 °F 30.22 in Calm     79% 0.00 in 0 W/m2
22:28 53.8 °F 47.4 °F 30.22 in Calm   1.0 mph 79% 0.00 in 0 W/m2
22:34 53.9 °F 47.2 °F 30.21 in Calm     78% 0.00 in 0 W/m2
22:40 54.1 °F 47.4 °F 30.22 in Calm     78% 0.00 in 0 W/m2
22:46 54.0 °F 47.0 °F 30.22 in Calm     77% 0.00 in 0 W/m2
22:52 53.7 °F 47.3 °F 30.21 in Calm     79% 0.00 in 0 W/m2
22:58 53.5 °F 47.1 °F 30.20 in Calm     79% 0.00 in 0 W/m2
23:04 53.5 °F 47.5 °F 30.20 in Calm   1.0 mph 80% 0.00 in 0 W/m2
23:14 54.2 °F 46.8 °F 30.20 in Calm     76% 0.00 in 0 W/m2
23:20 54.4 °F 46.6 °F 30.19 in Calm     75% 0.00 in 0 W/m2
23:26 54.7 °F 46.6 °F 30.19 in Calm     74% 0.00 in 0 W/m2
23:32 55.9 °F 47.0 °F 30.19 in SSE 1.0 mph 1.0 mph 72% 0.00 in 0 W/m2
23:38 58.4 °F 47.1 °F 30.19 in SSE 2.0 mph 4.0 mph 66% 0.00 in 0 W/m2
23:44 60.2 °F 47.1 °F 30.19 in SSE 2.0 mph 2.0 mph 62% 0.00 in 0 W/m2
23:50 61.1 °F 46.7 °F 30.19 in SSE 2.0 mph 2.0 mph 59% 0.00 in 0 W/m2
23:56 61.8 °F 46.4 °F 30.19 in SSE 2.0 mph 3.0 mph 57% 0.00 in 0 W/m2
Country Meadow, Clay, NY, USA
Compliments of Weather Underground - 2 mb